Flight Track Log - Related Links

Times and Time Zones

All times are in EDT time to prevent confusion due to time zone crossing. See the BER7689 flight status page for this flight to view local times or setup timezone preferences in your user account.

Time Position Orientation Groundspeed Altitude Reporting Facility
EDT Latitude Longitude Course Direction KTS MPH feet Rate Location/Type
Wed 03:33:22 PM 39.4402 2.6406 99° East 278 320 4,900  Level FlightAware ADS-B (LELL / QSA)
Wed 03:33:27 PM 39.4392 2.6514 94° East 277 319 5,200 1,870 Climbing FlightAware ADS-B (LELL / QSA)
Wed 03:38:30 PM 39.4950 3.2366 93° East 277 319 14,500 1,829 Climbing FlightAware ADS-B (LELL / QSA)
Wed 03:38:42 PM 39.5023 3.2559 63° Northeast 400 460 14,800 1,571 Climbing FlightAware ADS-B (LELL / QSA)
Wed 03:39:54 PM 39.5664 3.4243 63° Northeast 423 487 16,700 1,118 Climbing FlightAware ADS-B (LELL / QSA)
Wed 03:55:52 PM 41.1776 4.5299 10° North 442 509 34,000 1,041 Climbing FlightAware ADS-B (LELL / QSA)
Wed 03:56:00 PM 41.2020 4.3281 23° Northeast  Level Estimated
Wed 03:56:31 PM 41.2376 4.5445 10° North 443 510 34,000  Level FlightAware ADS-B (LELL / QSA)
Wed 04:11:58 PM 43.0305 5.5531 27° Northeast 450 518 34,000  Level FlightAware ADS-B (LFTP)
Wed 04:12:29 PM 43.0873 5.5928 27° Northeast 449 517 34,000  Level FlightAware ADS-B (LFTP)
Wed 04:12:59 PM 43.1432 5.6321 27° Northeast 448 516 34,000  Level FlightAware ADS-B (LFTP)
Wed 04:13:28 PM 43.1992 5.6714 27° Northeast 448 516 34,000  Level FlightAware ADS-B (LFTP)
Wed 04:13:59 PM 43.2548 5.7106 27° Northeast 449 517 34,000  Level FlightAware ADS-B (LFTP)
Wed 04:14:29 PM 43.3089 5.7485 26° Northeast 447 514 34,000  Level FlightAware ADS-B (LFTP)
Wed 04:14:59 PM 43.3660 5.7869 26° Northeast 448 516 34,000  Level FlightAware ADS-B (LFTP)
Wed 04:15:29 PM 43.4221 5.8250 26° Northeast 448 516 34,000  Level FlightAware ADS-B (LFTP)
Wed 04:15:59 PM 43.4775 5.8629 26° Northeast 449 517 34,000  Level FlightAware ADS-B (LFTP)
Wed 04:16:28 PM 43.5325 5.9006 26° Northeast 449 517 34,000  Level FlightAware ADS-B (LFTP)
Wed 04:16:59 PM 43.5879 5.9386 26° Northeast 450 518 34,000  Level FlightAware ADS-B (LFTP)
Wed 04:17:28 PM 43.6454 5.9781 26° Northeast 449 517 34,000  Level FlightAware ADS-B (LFTP)
Wed 04:17:59 PM 43.7012 6.0166 26° Northeast 450 518 34,000  Level FlightAware ADS-B (LFTP)
Wed 04:18:28 PM 43.7574 6.0554 26° Northeast 449 517 34,000  Level FlightAware ADS-B (LFTP)
Wed 04:18:58 PM 43.8128 6.0939 26° Northeast 450 518 34,000  Level FlightAware ADS-B (LFTP)
Wed 04:19:29 PM 43.8691 6.1330 26° Northeast 449 517 34,000  Level FlightAware ADS-B (LFTP)
Wed 04:19:59 PM 43.9247 6.1717 26° Northeast 451 519 34,000  Level FlightAware ADS-B (LFTP)
Wed 04:20:29 PM 43.9805 6.2104 26° Northeast 452 520 34,000  Level FlightAware ADS-B (LFTP)
Wed 04:20:52 PM 44.0134 6.2333 26° Northeast 452 520 34,000  Level FlightAware ADS-B (LFTP)
Wed 04:21:28 PM 44.0916 6.2879 26° Northeast 452 520 34,000  Level FlightAware ADS-B (LFTP)
Wed 04:21:54 PM 44.1294 6.3145 26° Northeast 451 519 34,000  Level FlightAware ADS-B (LFTP)
Wed 04:22:29 PM 44.2048 6.3675 26° Northeast 452 520 34,000  Level FlightAware ADS-B (LFTP)
Wed 04:22:58 PM 44.2600 6.4063 26° Northeast 451 519 34,000  Level FlightAware ADS-B (LFTP)
Wed 04:23:28 PM 44.3172 6.4466 26° Northeast 451 519 34,000  Level FlightAware ADS-B (LFTP)
Wed 04:23:57 PM 44.3689 6.4832 26° Northeast 449 517 34,000  Level FlightAware ADS-B (LFTP)
Wed 04:24:29 PM 44.4287 6.5256 27° Northeast 449 517 34,000  Level FlightAware ADS-B (LFTP)
Wed 04:24:58 PM 44.4838 6.5647 26° Northeast 447 514 34,000  Level FlightAware ADS-B (LFTP)
Wed 04:25:28 PM 44.5394 6.6041 26° Northeast 446 513 34,000  Level FlightAware ADS-B (LFTP)
Wed 04:25:59 PM 44.5948 6.6436 27° Northeast 445 512 34,000  Level FlightAware ADS-B (LFTP)
Wed 04:26:29 PM 44.6497 6.6830 27° Northeast 445 512 34,000  Level FlightAware ADS-B (LFTP)
Wed 04:26:58 PM 44.7043 6.7221 27° Northeast 445 512 34,000  Level FlightAware ADS-B (LFTP)
Wed 04:27:29 PM 44.7601 6.7598 23° Northeast 443 510 34,000  Level FlightAware ADS-B (LFTP)
Wed 04:27:58 PM 44.7914 6.7769 17° North 440 506 34,000  Level FlightAware ADS-B (LFTP)
Wed 04:28:28 PM 44.8748 6.8085 10° North 437 503 34,000  Level FlightAware ADS-B (LFTP)
Wed 04:28:59 PM 44.9367 6.8235 North 437 503 34,000  Level FlightAware ADS-B (LFTP)
Wed 04:29:28 PM 44.9913 6.8367 North 437 503 34,000  Level FlightAware ADS-B (LFTP)
Wed 04:29:58 PM 45.0566 6.8526 North 438 504 34,000  Level FlightAware ADS-B (LFTP)
Wed 04:30:28 PM 45.1073 6.8649 North 438 504 34,000  Level FlightAware ADS-B (LFTP)
Wed 04:30:50 PM 45.1598 6.8776 10° North 438 504 34,000  Level FlightAware ADS-B (CYCD)
Wed 04:30:59 PM 45.1765 6.8817 North 438 504 34,000  Level FlightAware ADS-B (LFTP)
Wed 04:31:20 PM 45.2198 6.8921 10° North 438 504 34,000  Level FlightAware ADS-B (CYCD)
Wed 04:31:29 PM 45.2366 6.8962 North 438 504 34,000  Level FlightAware ADS-B (LFTP)
Wed 04:31:59 PM 45.2962 6.9107 North 439 505 34,000  Level FlightAware ADS-B (LFTP)
Wed 04:32:00 PM 45.2991 6.9114 10° North 439 505 34,000  Level FlightAware ADS-B (CYCD)
Wed 04:32:29 PM 45.3547 6.9250 North 439 505 34,000  Level FlightAware ADS-B (LFTP)
Wed 04:32:30 PM 45.3557 6.9253 10° North 439 505 34,000  Level FlightAware ADS-B (CYCD)
Wed 04:33:09 PM 45.4324 6.9440 10° North 439 505 34,000  Level FlightAware ADS-B (CYCD)
Wed 04:33:42 PM 45.5020 6.9693 20° North 444 511 34,000  Level FlightAware ADS-B (CYCD)
Wed 04:33:58 PM 45.5081 6.9726 North 439 505 34,000  Level FlightAware ADS-B (LFTP)
Wed 04:34:13 PM 45.5612 7.0089 27° Northeast 447 514 34,000  Level FlightAware ADS-B (CYCD)
Wed 04:34:43 PM 45.6157 7.0487 27° Northeast 448 516 34,000  Level FlightAware ADS-B (CYCD)
Wed 04:35:14 PM 45.6727 7.0906 27° Northeast 449 517 34,000  Level FlightAware ADS-B (CYCD)
Wed 04:35:52 PM 45.7431 7.1425 27° Northeast 449 517 34,000  Level FlightAware ADS-B (CYCD)
Wed 04:36:23 PM 45.7912 7.1781 27° Northeast 449 517 34,000  Level FlightAware ADS-B (CYCD)
Wed 04:37:04 PM 45.8714 7.2375 28° Northeast 449 517 34,000  Level FlightAware ADS-B (CYCD)
Wed 04:37:42 PM 45.9417 7.2899 28° Northeast 449 517 34,000  Level FlightAware ADS-B (CYCD)
Wed 04:38:12 PM 46.0014 7.3344 28° Northeast 449 517 34,000  Level FlightAware ADS-B (CYCD)
Wed 04:38:42 PM 46.0564 7.3755 28° Northeast 449 517 34,000  Level FlightAware ADS-B (CYCD)
Wed 04:39:14 PM 46.1099 7.4156 28° Northeast 449 517 34,000  Level FlightAware ADS-B (CYCD)
Wed 04:39:44 PM 46.1660 7.4578 28° Northeast 447 514 34,000 100 Level FlightAware ADS-B (CYCD)
Wed 04:40:14 PM 46.2245 7.5019 28° Northeast 445 512 34,100  Climbing FlightAware ADS-B (CYCD)
Wed 04:40:53 PM 46.2961 7.5535 24° Northeast 442 509 34,000 -76 Descending FlightAware ADS-B (CYCD)
Wed 04:41:33 PM 46.3712 7.5959 21° North 437 503 34,000  Level FlightAware ADS-B (CYCD)
Wed 04:42:03 PM 46.4298 7.6285 21° North 435 501 34,000  Level FlightAware ADS-B (CYCD)
Wed 04:42:43 PM 46.4961 7.6654 21° North 433 498 34,000  Level FlightAware ADS-B (CYCD)
Wed 04:43:21 PM 46.5745 7.7090 21° North 434 499 34,000  Level FlightAware ADS-B (CYCD)
Wed 04:43:54 PM 46.6359 7.7435 21° North 434 499 34,000  Level FlightAware ADS-B (CYCD)
Wed 04:44:33 PM 46.7104 7.7852 21° North 435 501 34,000  Level FlightAware ADS-B (CYCD)
Wed 04:45:13 PM 46.7859 7.8276 21° North 438 504 34,000  Level FlightAware ADS-B (CYCD)
Wed 04:45:43 PM 46.8418 7.8592 21° North 439 505 34,000 86 Level FlightAware ADS-B (CYCD)
Wed 04:46:23 PM 46.9178 7.9021 21° North 439 505 34,100 86 Climbing FlightAware ADS-B (CYCD)
Wed 04:46:53 PM 46.9741 7.9339 21° North 439 505 34,100 -100 Level FlightAware ADS-B (CYCD)
Wed 04:47:23 PM 47.0311 7.9663 21° North 440 506 34,000 -471 Descending FlightAware ADS-B (CYCD)
Wed 04:48:35 PM 47.1628 8.0578 26° Northeast 434 499 33,300 -757 Descending FlightAware ADS-B (CYCD)
Wed 04:49:14 PM 47.2345 8.1042 19° North 427 491 32,600 -1,808 Descending FlightAware ADS-B (CYCD)
Wed 04:49:48 PM 47.2954 8.1241 14° North 432 497 31,100 -2,696 Descending FlightAware ADS-B (ETSE)
Wed 04:50:23 PM 47.3677 8.1595 20° North 431 496 29,500 -2,250 Descending FlightAware ADS-B (ETSE)
Wed 04:51:08 PM 47.4460 8.2039 21° North 415 478 28,100 -2,132 Descending FlightAware ADS-B (ETSE)
Wed 04:51:39 PM 47.4992 8.2345 21° North 410 472 26,800 -2,593 Descending FlightAware ADS-B (EDDM / MUC)
Wed 04:52:29 PM 47.5262 8.2501 21° North 407 468 24,600 -2,316 Descending FlightAware ADS-B
Wed 04:56:11 PM 47.9670 8.5077 22° Northeast 369 425 16,300 -2,243 Descending FlightAware ADS-B (EDDM / MUC)
Wed 04:58:00 PM 48.1347 8.6713 33° Northeast  Level Estimated
Wed 04:59:00 PM 48.2270 8.7618 33° Northeast  Level Estimated
Wed 05:00:00 PM 48.3191 8.8526 33° Northeast  Level Estimated
Wed 05:01:00 PM 48.4112 8.9437 33° Northeast  Level Estimated
Wed 05:02:00 PM 48.5032 9.0352 33° Northeast  Level Estimated
Wed 05:03:00 PM 48.5952 9.1270 33° Northeast  Level Estimated
Wed 05:04:00 PM 48.6871 9.2191 33° Northeast  Level Estimated
Wed 05:05:00 PM 48.6899 9.2220 34° Northeast  Level Estimated
Wed 05:06:00 PM 48.6899 9.2220 North  Level Estimated
Wed 05:07:00 PM 48.6899 9.2220 North  Level Estimated
Wed 05:08:00 PM 48.6899 9.2220 North  Level Estimated
Wed 05:09:00 PM 48.6899 9.2220 North  Level Estimated
Wed 05:10:00 PM 48.6899 9.2220 North  Level Estimated
Wed 05:11:00 PM 48.6899 9.2220 North  Level Estimated
Wed 05:12:00 PM 48.6899 9.2220 North  Level Estimated
Wed 05:13:00 PM 48.6899 9.2220 North  Level Estimated
Wed 05:14:00 PM 48.6899 9.2220 North  Level Estimated
Wed 05:15:00 PM 48.6899 9.2220 North  Level Estimated
Wed 05:16:00 PM 48.6899 9.2220 North  Level Estimated
Wed 05:17:00 PM 48.6899 9.2220 North  Level Estimated
Wed 05:18:00 PM 48.6899 9.2220 North  Level Estimated

Login

Don't have an account? Register now (free) for customized features, flight alerts, and more!